Weather at Charlotte Douglas International Airport

Public forecast

Using degrees Fahrenheit for public forecast. Weather courtesy of forecast.io.

Current aviation weather report (METAR) for Charlotte Douglas International Airport

Retrieved 2020/10/26 14:52 UTC (15 minutes ago):

KCLT 261452Z 05003KT 10SM SCT010 BKN037 BKN250 15/12 A3018 RMK AO2 SLP217 T01500117 51011

Aviation forecast (TAF) for Charlotte Douglas International Airport

Retrieved 2020/10/26 12:40 UTC (2 hours ago):

TAF KCLT 261138Z 2612/2718 03006KT P6SM BKN007 OVC014 FM261600 02003KT P6SM BKN015 FM262000 VRB02KT P6SM BKN050 BKN250 FM270400 VRB02KT P6SM BKN025 FM271200 VRB02KT 6SM BR SCT007 BKN015